Fort Wingate, New Mexico
Current Conditions -  °F | °C
As of 12:53 AM on Thursday 27 Nov 2014 (Local Time) from KGUP Reporting Station
Clear Clear  
Wind Chill: 25°   Ceiling: Unl
Heat Index: 25°   Visibility: 10mi
Dew Point: 13°   Wind: 3mph
Humidity: 60%   Direction: 30°NNE
Pressure: 30.49"   Gusts: NA
Location:  35.47°N, 108.55°W
Report Text: KGUP 270753Z AUTO 03003KT 10SM CLR M04/M11 A3049 RMK AO2 SLP301 T10391106
Loading
Personal Weather Stations






























Interactive Weather Map New forecast layout! Learn more

10-Day Weather Forecast

Advertisements
Track Severe Weather on mobile